Sumiton, Alabama
Current Conditions -  °F | °C
As of 3:35 AM on Friday 19 Dec 2014 (Local Time) from KJFX Reporting Station
Overcast Overcast  
Wind Chill: 43°   Ceiling: 3200
Heat Index: 43°   Visibility: 10mi
Dew Point: 37°   Wind: 3mph
Humidity: 81%   Direction: 70°ENE
Pressure: 30.18"   Gusts: NA
Location:  33.76°N, 87.05°W
Report Text: KJFX 190935Z AUTO 07003KT 10SM OVC032 06/03 A3018 RMK A02 P-128
Loading
Personal Weather Stations






























Interactive Weather Map New forecast layout! Learn more

10-Day Weather Forecast

Advertisements
Track Severe Weather on mobile